Time;durP1;ratioP1;P1;durP2;ratioP2;P2;SDS_P1;SDS_P2;PMS_P1;PMS_P2;Temp;Humidity;BMP_temperature;BMP_pressure;BME280_temperature;BME280_humidity;BME280_pressure;Samples;Min_cycle;Max_cycle;Signal;HPM_P1;HPM_P2
2022/09/13 00:01:29;;;;;;;0.00;0.00;;;;;;;17.80;89.61;100928.72;5071737;28;20058;-68
2022/09/13 00:03:54;;;;;;;0.00;0.00;;;;;;;17.77;90.64;100934.47;5068536;28;20094;-68
2022/09/13 00:06:21;;;;;;;0.00;0.00;;;;;;;17.70;91.97;100936.16;5062740;28;20078;-68
2022/09/13 00:08:46;;;;;;;0.00;0.00;;;;;;;17.58;91.01;100935.63;5065573;28;20051;-68
2022/09/13 00:11:23;;;;;;;0.00;0.00;;;;;;;17.44;92.43;100931.66;5061226;28;20059;-68
2022/09/13 00:13:49;;;;;;;0.00;0.00;;;;;;;17.36;92.89;100927.00;5060629;28;20032;-68
2022/09/13 00:16:16;;;;;;;0.00;0.00;;;;;;;17.30;92.78;100924.09;5058921;28;20574;-68
2022/09/13 00:18:42;;;;;;;0.00;0.00;;;;;;;17.35;92.30;100927.19;5064287;28;20024;-68
2022/09/13 00:21:10;;;;;;;0.00;0.00;;;;;;;17.41;91.87;100920.25;5065108;28;20020;-68
2022/09/13 00:23:36;;;;;;;0.00;0.00;;;;;;;17.44;91.31;100922.66;5063760;28;20035;-68
2022/09/13 00:26:07;;;;;;;0.00;0.00;;;;;;;17.48;91.47;100924.84;5059444;28;20025;-68
2022/09/13 00:28:32;;;;;;;0.00;0.00;;;;;;;17.47;91.03;100914.19;5060614;28;20070;-68
2022/09/13 00:31:02;;;;;;;0.00;0.00;;;;;;;17.49;90.84;100918.41;5064045;28;20586;-68
2022/09/13 00:33:27;;;;;;;0.00;0.00;;;;;;;17.44;92.65;100912.66;5063736;28;20024;-68
2022/09/13 00:35:53;;;;;;;0.03;0.00;;;;;;;17.35;92.88;100906.31;5058026;28;20032;-68
2022/09/13 00:38:18;;;;;;;0.00;0.00;;;;;;;17.35;91.47;100900.06;5061217;28;20021;-68
2022/09/13 00:40:43;;;;;;;0.00;0.00;;;;;;;17.34;93.04;100895.63;5066957;28;20041;-68
2022/09/13 00:43:18;;;;;;;0.00;0.00;;;;;;;17.29;93.65;100897.97;5063990;28;20392;-68
2022/09/13 00:45:43;;;;;;;0.00;0.00;;;;;;;17.23;94.07;100889.47;5057810;28;20504;-68
2022/09/13 00:48:19;;;;;;;0.00;0.00;;;;;;;17.17;94.10;100889.28;5065570;28;20024;-68
2022/09/13 00:50:50;;;;;;;0.00;0.00;;;;;;;17.14;94.53;100890.47;5062252;28;20066;-68
2022/09/13 00:53:21;;;;;;;0.00;0.00;;;;;;;17.21;92.85;100891.53;5066652;28;20037;-68
2022/09/13 00:55:53;;;;;;;0.00;0.00;;;;;;;17.22;93.48;100885.06;5056246;28;20028;-68
2022/09/13 00:58:22;;;;;;;0.00;0.00;;;;;;;17.23;93.02;100883.22;5062217;28;20067;-68
2022/09/13 01:00:47;;;;;;;0.00;0.00;;;;;;;17.26;93.07;100882.03;5062645;28;20028;-68
2022/09/13 01:03:14;;;;;;;0.08;0.08;;;;;;;17.32;92.11;100879.53;5064252;28;20459;-68
2022/09/13 01:05:43;;;;;;;0.00;0.00;;;;;;;17.38;91.97;100878.84;5059394;28;20036;-68
2022/09/13 01:08:16;;;;;;;0.00;0.00;;;;;;;17.39;93.13;100875.13;5068012;28;20123;-68
2022/09/13 01:10:42;;;;;;;;;;;;;;;17.29;94.57;100881.69;5074840;28;20064;-68
2022/09/13 01:13:13;;;;;;;0.00;0.00;;;;;;;17.29;94.31;100884.41;5059959;28;20023;-68
2022/09/13 01:15:39;;;;;;;0.00;0.00;;;;;;;17.24;93.52;100879.47;5057029;28;20033;-68
2022/09/13 01:18:06;;;;;;;0.00;0.00;;;;;;;17.30;92.17;100891.53;5060555;28;20589;-68
2022/09/13 01:21:00;;;;;;;0.00;0.00;;;;;;;17.31;92.90;100890.53;5062411;28;20047;-68
2022/09/13 01:23:44;;;;;;;;;;;;;;;17.28;91.50;100890.84;5050179;28;20469;-68
2022/09/13 01:26:40;;;;;;;0.00;0.00;;;;;;;17.32;91.25;100882.25;5060051;28;19970;-68
2022/09/13 01:29:24;;;;;;;0.00;0.00;;;;;;;17.34;93.23;100888.34;5059247;28;20136;-68
2022/09/13 01:32:08;;;;;;;0.00;0.00;;;;;;;17.36;93.15;100893.59;5058994;28;20536;-68
2022/09/13 01:34:59;;;;;;;0.00;0.00;;;;;;;17.31;93.37;100891.41;5064228;28;20041;-68
2022/09/13 01:37:30;;;;;;;0.03;0.03;;;;;;;17.27;94.68;100887.31;5061549;28;20025;-68
2022/09/13 01:40:01;;;;;;;0.00;0.00;;;;;;;17.22;94.58;100879.63;5065293;28;20056;-68
2022/09/13 01:42:40;;;;;;;0.00;0.00;;;;;;;17.20;94.24;100883.53;5063219;28;20021;-68
2022/09/13 01:45:23;;;;;;;0.00;0.00;;;;;;;17.14;94.72;100882.31;5058864;28;20107;-68
2022/09/13 01:47:54;;;;;;;0.08;0.08;;;;;;;17.12;95.17;100875.34;5072638;28;20028;-68
2022/09/13 01:50:33;;;;;;;0.00;0.00;;;;;;;17.01;95.08;100857.50;5067431;28;20486;-68
2022/09/13 01:53:02;;;;;;;0.00;0.00;;;;;;;17.21;95.03;100877.09;5075121;28;20028;-68
2022/09/13 01:55:38;;;;;;;0.00;0.00;;;;;;;17.24;93.91;100872.19;5066396;28;20368;-68
2022/09/13 01:58:12;;;;;;;0.00;0.00;;;;;;;17.30;94.09;100875.25;5070750;28;20032;-68
2022/09/13 02:00:46;;;;;;;0.00;0.00;;;;;;;17.33;94.04;100878.53;5070322;28;20067;-68
2022/09/13 02:03:21;;;;;;;0.00;0.00;;;;;;;17.32;94.23;100874.09;5065487;28;20051;-68
2022/09/13 02:05:50;;;;;;;0.08;0.08;;;;;;;17.36;94.90;100886.31;5067301;28;20428;-68
2022/09/13 02:08:20;;;;;;;0.00;0.00;;;;;;;17.36;94.80;100877.34;5071985;28;20032;-68
2022/09/13 02:11:21;;;;;;;0.00;0.00;;;;;;;17.38;94.31;100875.31;5069692;28;20484;-68
2022/09/13 02:13:53;;;;;;;0.00;0.00;;;;;;;17.29;95.17;100865.41;5041700;28;20044;-68
2022/09/13 02:16:25;;;;;;;0.00;0.00;;;;;;;17.00;95.12;100840.38;5066725;28;20093;-68
2022/09/13 02:18:56;;;;;;;0.00;0.00;;;;;;;16.99;94.73;100849.53;5071639;28;20020;-68
2022/09/13 02:21:28;;;;;;;0.00;0.00;;;;;;;17.03;94.78;100864.47;5063926;28;20389;-68
2022/09/13 02:24:00;;;;;;;0.00;0.00;;;;;;;16.84;94.86;100845.66;5064615;28;20111;-68
2022/09/13 02:26:27;;;;;;;0.10;0.10;;;;;;;17.01;95.06;100869.19;5064289;28;20033;-68
2022/09/13 02:28:53;;;;;;;0.00;0.00;;;;;;;17.05;94.47;100867.88;5067103;28;20025;-67
2022/09/13 02:31:26;;;;;;;0.00;0.00;;;;;;;17.11;94.08;100868.22;5065179;28;20032;-68
2022/09/13 02:33:59;;;;;;;0.00;0.00;;;;;;;17.15;93.28;100862.31;5061720;28;20830;-68
2022/09/13 02:36:28;;;;;;;0.00;0.00;;;;;;;17.14;93.09;100855.19;5059412;28;20067;-68
2022/09/13 02:39:03;;;;;;;0.00;0.00;;;;;;;17.15;92.43;100862.31;5059641;28;20074;-68
2022/09/13 02:41:42;;;;;;;0.00;0.00;;;;;;;17.22;92.25;100882.34;5065121;28;20039;-68
2022/09/13 02:44:13;;;;;;;0.00;0.00;;;;;;;17.31;93.18;100871.53;5058592;28;20028;-68
2022/09/13 02:47:21;;;;;;;0.00;0.00;;;;;;;17.35;93.91;100878.34;5065268;28;20028;-68
2022/09/13 02:50:32;;;;;;;0.00;0.00;;;;;;;17.11;96.13;100854.66;5063611;28;20046;-68
2022/09/13 02:53:20;;;;;;;0.00;0.00;;;;;;;17.20;95.70;100878.09;5022407;28;20048;-68
2022/09/13 02:56:04;;;;;;;0.00;0.00;;;;;;;17.13;94.75;100877.91;5018799;28;20467;-68
2022/09/13 02:58:52;;;;;;;0.00;0.00;;;;;;;17.06;94.41;100874.13;5050884;28;20047;-68
2022/09/13 03:01:17;;;;;;;0.00;0.00;;;;;;;17.08;94.27;100872.94;5064376;28;20056;-67
2022/09/13 03:03:43;;;;;;;0.00;0.00;;;;;;;16.89;95.08;100863.19;5063996;28;20670;-68
2022/09/13 03:06:09;;;;;;;0.00;0.00;;;;;;;16.96;97.09;100885.09;5063021;28;20029;-67
2022/09/13 03:08:35;;;;;;;0.00;0.00;;;;;;;16.81;97.56;100868.53;5066130;28;20044;-67
2022/09/13 03:11:10;;;;;;;0.10;0.10;;;;;;;16.81;98.65;100884.81;5062711;28;20416;-68
2022/09/13 03:14:04;;;;;;;0.00;0.00;;;;;;;16.76;99.97;100885.28;5060292;28;20426;-68
2022/09/13 03:16:47;;;;;;;0.00;0.00;;;;;;;16.79;99.14;100892.25;5062532;28;20021;-68
2022/09/13 03:19:27;;;;;;;0.00;0.00;;;;;;;16.75;100.00;100885.44;5061149;28;20025;-68
2022/09/13 03:22:01;;;;;;;0.00;0.00;;;;;;;16.81;99.84;100892.94;5064861;28;20408;-68
2022/09/13 03:24:33;;;;;;;;;;;;;;;16.77;100.00;100886.13;5065045;28;20655;-68
2022/09/13 03:27:17;;;;;;;0.00;0.00;;;;;;;16.80;100.00;100880.41;5061394;28;19920;-68
2022/09/13 03:30:01;;;;;;;0.03;0.03;;;;;;;16.71;100.00;100874.06;5061062;28;20703;-68
2022/09/13 03:32:34;;;;;;;0.00;0.00;;;;;;;16.73;100.00;100885.59;5060144;28;20090;-68
2022/09/13 03:35:09;;;;;;;0.00;0.00;;;;;;;16.80;100.00;100883.09;5063074;28;20036;-68
2022/09/13 03:37:47;;;;;;;0.10;0.10;;;;;;;16.84;100.00;100881.78;5061207;28;20043;-68
2022/09/13 03:40:15;;;;;;;0.00;0.00;;;;;;;16.77;100.00;100867.16;5064188;28;20051;-67
2022/09/13 03:42:43;;;;;;;0.00;0.00;;;;;;;16.82;99.31;100872.13;5062861;28;20143;-68
2022/09/13 03:45:10;;;;;;;0.00;0.00;;;;;;;16.90;99.60;100870.31;5061635;28;20052;-68
2022/09/13 03:47:37;;;;;;;0.00;0.00;;;;;;;16.87;100.00;100876.03;5069215;28;20100;-68
2022/09/13 03:50:05;;;;;;;0.00;0.00;;;;;;;16.68;100.00;100841.03;5068653;28;20032;-68
2022/09/13 03:52:30;;;;;;;0.15;0.00;;;;;;;16.85;100.00;100872.63;5062859;28;20113;-68
2022/09/13 03:54:56;;;;;;;0.00;0.00;;;;;;;16.88;100.00;100871.44;5065044;28;20116;-68
2022/09/13 03:57:22;;;;;;;0.00;0.00;;;;;;;16.84;99.77;100870.94;5061497;28;20048;-68
2022/09/13 03:59:52;;;;;;;0.00;0.00;;;;;;;16.70;100.00;100855.25;5068126;28;20028;-68
2022/09/13 04:02:18;;;;;;;0.00;0.00;;;;;;;16.77;100.00;100878.88;5061961;28;20029;-68
2022/09/13 04:04:45;;;;;;;0.00;0.00;;;;;;;16.78;100.00;100877.00;5067533;28;20449;-68
2022/09/13 04:07:12;;;;;;;0.05;0.05;;;;;;;16.77;99.84;100881.56;5067834;28;20033;-68
2022/09/13 04:09:38;;;;;;;0.05;0.05;;;;;;;16.76;99.46;100887.13;5069542;28;20123;-68
2022/09/13 04:12:04;;;;;;;0.00;0.00;;;;;;;16.75;98.94;100889.00;5059638;28;20154;-68
2022/09/13 04:14:29;;;;;;;0.00;0.00;;;;;;;16.73;98.82;100887.44;5058396;28;20025;-68
2022/09/13 04:16:56;;;;;;;0.00;0.00;;;;;;;16.71;99.54;100890.34;5059587;28;20039;-68
2022/09/13 04:19:21;;;;;;;0.20;0.10;;;;;;;16.66;100.00;100898.09;5056511;28;20077;-68
2022/09/13 04:21:52;;;;;;;0.00;0.00;;;;;;;16.56;100.00;100898.19;5058531;28;20033;-68
2022/09/13 04:24:18;;;;;;;0.00;0.00;;;;;;;16.47;100.00;100897.28;5049239;28;20032;-68
2022/09/13 04:26:47;;;;;;;0.00;0.00;;;;;;;16.51;100.00;100903.22;5057958;28;20033;-68
2022/09/13 04:29:12;;;;;;;0.00;0.00;;;;;;;16.56;100.00;100910.88;5060935;28;20054;-68
2022/09/13 04:31:38;;;;;;;0.00;0.00;;;;;;;16.50;100.00;100898.81;5055417;28;20033;-68
2022/09/13 04:34:03;;;;;;;0.00;0.00;;;;;;;16.56;100.00;100910.88;5056329;28;20066;-68
2022/09/13 04:36:28;;;;;;;0.00;0.00;;;;;;;16.56;100.00;100914.44;5049881;28;21006;-68
2022/09/13 04:38:54;;;;;;;0.00;0.00;;;;;;;16.59;100.00;100915.97;5056861;28;20542;-68
2022/09/13 04:41:19;;;;;;;0.00;0.00;;;;;;;16.59;100.00;100916.84;5055325;28;20031;-68
2022/09/13 04:43:49;;;;;;;0.00;0.00;;;;;;;16.55;100.00;100909.19;5057478;28;20043;-68
2022/09/13 04:46:14;;;;;;;0.00;0.00;;;;;;;16.52;100.00;100912.22;5059462;28;20563;-68
2022/09/13 04:48:39;;;;;;;0.00;0.00;;;;;;;16.43;100.00;100908.56;5064748;28;20032;-68
2022/09/13 04:51:05;;;;;;;0.00;0.00;;;;;;;16.43;100.00;100912.16;5062229;28;20051;-68
2022/09/13 04:53:31;;;;;;;0.00;0.00;;;;;;;16.25;100.00;100890.47;5056368;28;20399;-73
2022/09/13 04:56:00;;;;;;;0.00;0.00;;;;;;;16.38;100.00;100911.75;5053707;28;20025;-71
2022/09/13 04:58:26;;;;;;;0.00;0.00;;;;;;;16.47;100.00;100913.53;5055733;28;20120;-68
2022/09/13 05:00:55;;;;;;;0.00;0.00;;;;;;;16.49;100.00;100919.66;5057073;28;20037;-67
2022/09/13 05:03:21;;;;;;;0.00;0.00;;;;;;;16.45;100.00;100920.97;5051887;28;20110;-68
2022/09/13 05:05:46;;;;;;;0.00;0.00;;;;;;;16.45;100.00;100910.13;5055141;28;20491;-67
2022/09/13 05:08:11;;;;;;;0.00;0.00;;;;;;;16.46;100.00;100910.97;5063029;28;20021;-67
2022/09/13 05:10:37;;;;;;;0.00;0.00;;;;;;;16.44;100.00;100915.69;5056150;28;20047;-69
2022/09/13 05:13:02;;;;;;;0.00;0.00;;;;;;;16.41;100.00;100930.41;5058750;28;20052;-67
2022/09/13 05:15:28;;;;;;;0.00;0.00;;;;;;;16.39;100.00;100916.16;5063799;28;20103;-67
2022/09/13 05:17:53;;;;;;;0.00;0.00;;;;;;;16.34;100.00;100916.66;5064222;28;20486;-67
2022/09/13 05:20:18;;;;;;;0.00;0.00;;;;;;;16.33;100.00;100924.91;5062274;28;20028;-67
2022/09/13 05:22:43;;;;;;;0.00;0.00;;;;;;;16.37;100.00;100926.31;5059037;28;20057;-67
2022/09/13 05:25:09;;;;;;;0.00;0.00;;;;;;;16.41;100.00;100925.00;5061623;28;20112;-67
2022/09/13 05:27:34;;;;;;;0.00;0.00;;;;;;;16.40;100.00;100923.28;5061811;28;20460;-67
2022/09/13 05:29:59;;;;;;;0.00;0.00;;;;;;;16.45;100.00;100928.22;5062035;28;20024;-67
2022/09/13 05:32:25;;;;;;;0.00;0.00;;;;;;;16.53;100.00;100922.88;5059902;28;20119;-67
2022/09/13 05:34:50;;;;;;;0.08;0.08;;;;;;;16.59;100.00;100921.41;5064928;28;20033;-67
2022/09/13 05:37:15;;;;;;;0.00;0.00;;;;;;;16.61;100.00;100919.38;5062740;28;20486;-67
2022/09/13 05:39:40;;;;;;;0.00;0.00;;;;;;;16.54;100.00;100905.63;5062234;28;20044;-67
2022/09/13 05:42:06;;;;;;;0.00;0.00;;;;;;;16.64;100.00;100919.94;5064617;28;20062;-67
2022/09/13 05:44:31;;;;;;;0.00;0.00;;;;;;;16.69;100.00;100921.31;5058779;28;20444;-67
2022/09/13 05:46:56;;;;;;;0.00;0.00;;;;;;;16.76;100.00;100919.69;5058912;28;20048;-67
2022/09/13 05:49:22;;;;;;;0.00;0.00;;;;;;;16.81;100.00;100920.06;5062586;28;20024;-67
2022/09/13 05:51:47;;;;;;;0.00;0.00;;;;;;;16.87;100.00;100922.13;5061119;28;20360;-68
2022/09/13 05:54:12;;;;;;;0.00;0.00;;;;;;;16.81;100.00;100917.34;5059516;28;20028;-68
2022/09/13 05:56:38;;;;;;;0.00;0.00;;;;;;;16.73;100.00;100898.31;5060324;28;20071;-67
2022/09/13 05:59:03;;;;;;;0.00;0.00;;;;;;;16.93;100.00;100926.94;5060403;28;20032;-70
2022/09/13 06:01:29;;;;;;;0.00;0.00;;;;;;;16.98;100.00;100933.75;5058993;28;20396;-68
2022/09/13 06:03:56;;;;;;;0.00;0.00;;;;;;;17.04;100.00;100931.28;5065974;28;20111;-68
2022/09/13 06:06:22;;;;;;;0.00;0.00;;;;;;;16.98;100.00;100909.34;5061223;28;20044;-69
2022/09/13 06:08:51;;;;;;;0.00;0.00;;;;;;;17.13;100.00;100932.16;5063488;28;20057;-68
2022/09/13 06:11:17;;;;;;;0.00;0.00;;;;;;;17.16;100.00;100929.13;5068730;28;20029;-68
2022/09/13 06:13:42;;;;;;;0.00;0.00;;;;;;;17.18;100.00;100924.41;5059544;28;20448;-68
2022/09/13 06:16:09;;;;;;;0.00;0.00;;;;;;;17.23;100.00;100935.59;5063041;28;20111;-69
2022/09/13 06:18:35;;;;;;;0.05;0.05;;;;;;;17.28;100.00;100926.13;5062024;28;20025;-69
2022/09/13 06:21:03;;;;;;;0.00;0.00;;;;;;;17.49;100.00;100940.13;5062729;28;20527;-69
2022/09/13 06:23:29;;;;;;;0.10;0.10;;;;;;;17.57;100.00;100931.19;5064195;28;20092;-69
2022/09/13 06:26:05;;;;;;;0.00;0.00;;;;;;;17.75;99.53;100938.38;5058263;28;20506;-69
2022/09/13 06:28:31;;;;;;;0.10;0.10;;;;;;;17.60;99.06;100900.16;5059853;28;20420;-68
2022/09/13 06:31:05;;;;;;;0.10;0.10;;;;;;;17.91;98.57;100938.41;5064029;28;20028;-68
2022/09/13 06:33:32;;;;;;;0.00;0.00;;;;;;;18.00;98.84;100944.78;5066583;28;20036;-68
2022/09/13 06:36:03;;;;;;;0.00;0.00;;;;;;;18.08;97.94;100943.94;5061137;28;20031;-69
2022/09/13 06:38:28;;;;;;;0.00;0.00;;;;;;;18.16;96.90;100940.38;5063449;28;20028;-68
2022/09/13 06:41:00;;;;;;;0.00;0.00;;;;;;;18.18;96.27;100939.19;5066959;28;20039;-68
2022/09/13 06:43:25;;;;;;;0.00;0.00;;;;;;;18.28;96.42;100934.47;5064458;28;20052;-69
2022/09/13 06:45:52;;;;;;;0.00;0.00;;;;;;;18.30;94.42;100931.56;5063605;28;20115;-68
2022/09/13 06:48:18;;;;;;;0.00;0.00;;;;;;;18.43;94.86;100931.06;5064604;28;20120;-68
2022/09/13 06:50:44;;;;;;;0.00;0.00;;;;;;;18.53;94.64;100936.34;5063491;28;20123;-68
2022/09/13 06:53:09;;;;;;;0.00;0.00;;;;;;;18.53;93.52;100925.47;5065096;28;20044;-68
2022/09/13 06:55:35;;;;;;;0.00;0.00;;;;;;;18.70;93.89;100931.75;5063581;28;20044;-68
2022/09/13 06:58:00;;;;;;;0.00;0.00;;;;;;;18.77;93.94;100937.38;5065548;28;20056;-69
2022/09/13 07:00:25;;;;;;;0.00;0.00;;;;;;;18.82;93.77;100932.22;5063977;28;20028;-70
2022/09/13 07:02:51;;;;;;;0.00;0.00;;;;;;;18.93;93.95;100929.16;5067812;28;20416;-68
2022/09/13 07:05:17;;;;;;;0.00;0.00;;;;;;;19.00;93.32;100924.78;5064381;28;20032;-69
2022/09/13 07:07:43;;;;;;;0.00;0.00;;;;;;;19.21;93.07;100930.66;5058029;28;20029;-68
2022/09/13 07:10:08;;;;;;;0.00;0.00;;;;;;;19.26;92.78;100934.59;5058670;28;20036;-68
2022/09/13 07:12:33;;;;;;;0.10;0.10;;;;;;;19.24;93.99;100933.03;5069047;28;20695;-68
2022/09/13 07:14:59;;;;;;;0.00;0.00;;;;;;;19.23;93.49;100921.31;5063786;28;20431;-68
2022/09/13 07:17:26;;;;;;;0.00;0.00;;;;;;;19.35;92.88;100927.22;5059409;28;20056;-68
2022/09/13 07:19:51;;;;;;;0.00;0.00;;;;;;;19.46;91.71;100932.31;5066263;28;20059;-68
2022/09/13 07:22:17;;;;;;;0.00;0.00;;;;;;;19.62;91.80;100919.63;5066382;28;20163;-68
2022/09/13 07:24:42;;;;;;;0.00;0.00;;;;;;;19.76;91.01;100928.94;5058801;28;20029;-68
2022/09/13 07:27:07;;;;;;;0.05;0.00;;;;;;;19.86;90.80;100934.16;5060947;28;20111;-69
2022/09/13 07:29:33;;;;;;;0.00;0.00;;;;;;;19.99;89.46;100939.91;5063353;28;20036;-68
2022/09/13 07:31:58;;;;;;;0.00;0.00;;;;;;;20.13;89.44;100930.09;5065331;28;20105;-68
2022/09/13 07:34:25;;;;;;;0.00;0.00;;;;;;;20.29;88.70;100944.66;5065936;28;20162;-68
2022/09/13 07:36:51;;;;;;;0.00;0.00;;;;;;;20.33;88.08;100941.38;5058905;28;20042;-68
2022/09/13 07:39:17;;;;;;;0.00;0.00;;;;;;;20.48;88.21;100944.16;5067099;28;20036;-68
2022/09/13 07:41:43;;;;;;;0.08;0.00;;;;;;;20.56;87.46;100948.69;5061303;28;20021;-74
2022/09/13 07:44:09;;;;;;;0.00;0.00;;;;;;;20.69;87.76;100945.34;5064758;28;20502;-68
2022/09/13 07:46:36;;;;;;;0.00;0.00;;;;;;;20.83;88.15;100955.50;5064272;28;20418;-69
2022/09/13 07:49:02;;;;;;;0.00;0.00;;;;;;;20.94;87.76;100946.00;5066374;28;20025;-68
2022/09/13 07:51:29;;;;;;;0.00;0.00;;;;;;;21.00;86.60;100957.22;5064214;28;20036;-68
2022/09/13 07:53:59;;;;;;;0.00;0.00;;;;;;;21.06;87.29;100959.19;5060557;28;20032;-68
2022/09/13 07:56:26;;;;;;;0.00;0.00;;;;;;;21.13;86.03;100965.59;5060014;28;20373;-70
2022/09/13 07:58:53;;;;;;;0.00;0.00;;;;;;;21.16;85.49;100956.22;5065297;28;20024;-68
2022/09/13 08:01:24;;;;;;;0.00;0.00;;;;;;;21.14;84.10;100950.91;5062638;28;20078;-68
2022/09/13 08:03:57;;;;;;;0.00;0.00;;;;;;;21.30;84.94;100954.53;5062937;28;20035;-69
2022/09/13 08:06:24;;;;;;;0.00;0.00;;;;;;;21.43;84.83;100963.75;5066148;28;20074;-68
2022/09/13 08:08:50;;;;;;;0.00;0.00;;;;;;;21.49;85.57;100958.56;5065310;28;20082;-68
2022/09/13 08:11:20;;;;;;;0.00;0.00;;;;;;;21.60;84.93;100947.16;5065468;28;20040;-68
2022/09/13 08:13:46;;;;;;;0.00;0.00;;;;;;;21.76;84.04;100961.66;5064487;28;20032;-69
2022/09/13 08:16:12;;;;;;;0.00;0.00;;;;;;;21.93;83.52;100962.31;5064882;28;20305;-68
2022/09/13 08:18:43;;;;;;;0.00;0.00;;;;;;;22.00;83.70;100966.81;5064875;28;20032;-70
2022/09/13 08:21:08;;;;;;;0.00;0.00;;;;;;;22.01;83.22;100938.44;5062797;28;20032;-69
2022/09/13 08:23:33;;;;;;;0.00;0.00;;;;;;;22.23;83.22;100956.75;5056036;28;20033;-70
2022/09/13 08:26:01;;;;;;;0.00;0.00;;;;;;;22.15;82.98;100958.56;5060675;28;20062;-69
2022/09/13 08:28:26;;;;;;;0.00;0.00;;;;;;;22.29;82.94;100966.91;5070299;28;20032;-69
2022/09/13 08:30:52;;;;;;;0.00;0.00;;;;;;;22.35;82.65;100955.22;5061954;28;20039;-69
2022/09/13 08:33:17;;;;;;;0.00;0.00;;;;;;;22.35;81.78;100965.28;5064823;28;20036;-69
2022/09/13 08:35:50;;;;;;;0.00;0.00;;;;;;;22.35;83.60;100957.94;5062557;28;20112;-69
2022/09/13 08:38:15;;;;;;;0.00;0.00;;;;;;;22.45;83.52;100963.13;5063043;28;20519;-70
2022/09/13 08:40:44;;;;;;;0.00;0.00;;;;;;;22.53;83.08;100962.13;5064094;28;20146;-69
2022/09/13 08:43:38;;;;;;;0.00;0.00;;;;;;;22.67;82.61;100974.06;5065257;28;20032;-69
2022/09/13 08:46:20;;;;;;;0.00;0.00;;;;;;;22.80;81.55;100976.06;5062363;28;20463;-69
2022/09/13 08:48:46;;;;;;;0.00;0.00;;;;;;;22.85;83.79;100974.41;5065108;28;20036;-70
2022/09/13 08:51:25;;;;;;;0.00;0.00;;;;;;;23.06;81.42;100979.00;5070032;28;20026;-69
2022/09/13 08:53:50;;;;;;;0.00;0.00;;;;;;;23.26;80.51;100981.06;5064242;28;20373;-69
2022/09/13 08:56:27;;;;;;;0.00;0.00;;;;;;;23.11;78.75;100956.50;5057159;28;20074;-70
2022/09/13 08:59:31;;;;;;;0.00;0.00;;;;;;;23.11;76.96;100974.81;5068451;28;20090;-70
2022/09/13 09:02:01;;;;;;;0.00;0.00;;;;;;;23.18;79.14;100982.03;5052870;28;20123;-69
2022/09/13 09:04:26;;;;;;;0.00;0.00;;;;;;;23.29;78.67;100980.66;5059481;28;20051;-70
2022/09/13 09:07:02;;;;;;;0.00;0.00;;;;;;;23.15;78.57;100976.97;5057749;28;20400;-70
2022/09/13 09:09:31;;;;;;;0.00;0.00;;;;;;;23.25;79.16;100951.16;5064355;28;20684;-69
2022/09/13 09:12:02;;;;;;;0.00;0.00;;;;;;;23.63;78.68;100970.75;5061176;28;20031;-68
2022/09/13 09:14:31;;;;;;;0.00;0.00;;;;;;;23.81;78.76;100974.81;5057970;28;20140;-68
2022/09/13 09:17:00;;;;;;;0.00;0.00;;;;;;;23.98;77.04;100972.63;5059050;28;20031;-70
2022/09/13 09:19:34;;;;;;;0.00;0.00;;;;;;;24.05;73.90;100972.63;5060233;28;20115;-69
2022/09/13 09:22:03;;;;;;;0.00;0.00;;;;;;;24.42;75.81;100968.50;5058862;28;20379;-70
2022/09/13 09:24:32;;;;;;;0.00;0.00;;;;;;;24.35;71.97;100966.78;5061503;28;20040;-68
2022/09/13 09:26:58;;;;;;;0.00;0.00;;;;;;;24.05;72.71;100961.66;5060460;28;20021;-71
2022/09/13 09:29:31;;;;;;;0.00;0.00;;;;;;;24.00;72.36;100969.66;5064930;28;20063;-68
2022/09/13 09:32:27;;;;;;;0.00;0.00;;;;;;;23.90;73.26;100970.88;5060914;28;20028;-71
2022/09/13 09:35:11;;;;;;;0.00;0.00;;;;;;;23.98;75.15;100963.53;5061249;28;20028;-70
2022/09/13 09:37:38;;;;;;;0.00;0.00;;;;;;;23.81;75.64;100944.66;5062878;28;20024;-70
2022/09/13 09:40:07;;;;;;;0.00;0.00;;;;;;;24.10;76.40;100970.94;5060177;28;20064;-70
2022/09/13 09:42:44;;;;;;;0.00;0.00;;;;;;;24.20;75.45;100961.50;5061073;28;20119;-70
2022/09/13 09:45:26;;;;;;;0.00;0.00;;;;;;;24.19;73.86;100960.66;5060951;28;20021;-68
2022/09/13 09:47:52;;;;;;;0.00;0.00;;;;;;;24.13;75.58;100949.66;5064645;28;20025;-68
2022/09/13 09:50:21;;;;;;;0.00;0.00;;;;;;;24.06;77.10;100945.00;5060580;28;20029;-68
2022/09/13 09:53:00;;;;;;;0.00;0.00;;;;;;;24.16;74.73;100960.22;5060941;28;20055;-68
2022/09/13 09:55:27;;;;;;;0.00;0.00;;;;;;;24.36;75.25;100955.63;5058394;28;20033;-68
2022/09/13 09:57:53;;;;;;;0.00;0.00;;;;;;;24.58;74.47;100965.56;5063054;28;20025;-69
2022/09/13 10:00:20;;;;;;;0.00;0.00;;;;;;;24.76;73.13;100964.97;5064047;28;20150;-69
2022/09/13 10:02:46;;;;;;;0.00;0.00;;;;;;;24.84;72.83;100971.09;5062043;28;20032;-69
2022/09/13 10:05:12;;;;;;;0.00;0.00;;;;;;;25.15;73.11;100961.34;5061928;28;20469;-69
2022/09/13 10:07:39;;;;;;;0.00;0.00;;;;;;;25.39;71.58;100969.13;5065485;28;20113;-69
2022/09/13 10:10:07;;;;;;;0.00;0.00;;;;;;;25.28;69.62;100968.72;5065815;28;20036;-69
2022/09/13 10:12:35;;;;;;;0.00;0.00;;;;;;;24.81;71.49;100956.94;5062092;28;20028;-68
2022/09/13 10:15:11;;;;;;;0.00;0.00;;;;;;;24.78;72.20;100941.72;5062478;28;20075;-69
2022/09/13 10:17:36;;;;;;;0.00;0.00;;;;;;;25.08;70.88;100956.94;5063802;28;20028;-69
2022/09/13 10:20:25;;;;;;;0.00;0.00;;;;;;;25.41;70.38;100961.53;5065694;28;20036;-70
2022/09/13 10:23:09;;;;;;;0.00;0.00;;;;;;;25.56;68.19;100951.13;5064127;28;20457;-68
2022/09/13 10:25:36;;;;;;;0.00;0.00;;;;;;;25.84;68.50;100949.09;5065346;28;20030;-69
2022/09/13 10:28:02;;;;;;;0.00;0.00;;;;;;;25.96;68.20;100936.34;5070826;28;20056;-69
2022/09/13 10:30:40;;;;;;;0.00;0.00;;;;;;;26.22;68.20;100942.81;5060696;28;20024;-70
2022/09/13 10:33:17;;;;;;;0.00;0.00;;;;;;;26.53;68.82;100951.25;5067353;28;20028;-69
2022/09/13 10:35:47;;;;;;;0.00;0.00;;;;;;;26.70;66.00;100935.88;5065577;28;20041;-68
2022/09/13 10:38:25;;;;;;;0.00;0.00;;;;;;;26.76;66.36;100945.97;5065554;28;20381;-69
2022/09/13 10:40:50;;;;;;;0.00;0.00;;;;;;;26.87;66.25;100944.47;5081515;28;20139;-69
2022/09/13 10:43:18;;;;;;;0.00;0.00;;;;;;;26.89;65.13;100942.28;5064998;28;20123;-69
2022/09/13 10:45:47;;;;;;;0.00;0.00;;;;;;;26.94;65.52;100939.72;5064190;28;20463;-69
2022/09/13 10:48:15;;;;;;;0.00;0.00;;;;;;;27.48;63.21;100936.41;5063438;28;20021;-69
2022/09/13 10:50:58;;;;;;;0.00;0.00;;;;;;;27.56;62.19;100948.22;5065145;28;20102;-67
2022/09/13 10:53:32;;;;;;;;;;;;;;;27.66;62.47;100935.56;5061901;28;20112;-69
2022/09/13 10:55:57;;;;;;;0.00;0.00;;;;;;;27.91;60.26;100937.34;5063661;28;19930;-69
2022/09/13 10:58:23;;;;;;;0.00;0.00;;;;;;;27.84;59.92;100931.94;5065278;28;20032;-69
2022/09/13 11:01:49;;;;;;;0.00;0.00;;;;;;;27.82;60.63;100936.00;5067189;28;20043;-69
2022/09/13 11:04:36;;;;;;;0.00;0.00;;;;;;;27.31;58.50;100938.06;5032687;28;20548;-68
2022/09/13 11:07:15;;;;;;;0.00;0.00;;;;;;;26.94;60.32;100933.38;5063455;28;20112;-69
2022/09/13 11:09:56;;;;;;;0.00;0.00;;;;;;;26.93;61.37;100939.94;5059885;28;20028;-70
2022/09/13 11:12:32;;;;;;;0.00;0.00;;;;;;;26.28;61.89;100900.66;5061821;28;20037;-70
2022/09/13 11:15:30;;;;;;;0.00;0.00;;;;;;;26.37;61.23;100928.72;5063144;28;20131;-70
2022/09/13 11:18:17;;;;;;;0.00;0.00;;;;;;;26.60;62.95;100919.88;5064490;28;20024;-70
2022/09/13 11:21:07;;;;;;;0.00;0.00;;;;;;;26.56;60.97;100920.53;5066007;28;20115;-69
2022/09/13 11:23:57;;;;;;;0.00;0.00;;;;;;;26.44;63.31;100917.66;5064785;28;20032;-70
2022/09/13 11:26:25;;;;;;;0.00;0.00;;;;;;;26.46;62.72;100913.63;5064114;28;20036;-69
2022/09/13 11:28:59;;;;;;;0.00;0.00;;;;;;;26.65;61.60;100913.69;5063964;28;20032;-69
2022/09/13 11:31:46;;;;;;;0.00;0.00;;;;;;;26.60;61.89;100910.75;5062436;28;20107;-69
2022/09/13 11:34:50;;;;;;;0.00;0.00;;;;;;;26.46;62.41;100910.03;5064509;28;20039;-69
2022/09/13 11:37:24;;;;;;;0.00;0.00;;;;;;;26.26;63.21;100911.03;5060921;28;20361;-69
2022/09/13 11:40:28;;;;;;;0.00;0.00;;;;;;;26.27;62.39;100907.22;5063715;28;20040;-70
2022/09/13 11:43:18;;;;;;;0.00;0.00;;;;;;;26.26;63.40;100900.03;5043816;28;20043;-70